sensor_id;sensor_type;location;lat;lon;timestamp;temperature;humidity
13231;DHT22;6681;53.254;10.398;2023-10-08T00:01:08;12.30;63.10
13231;DHT22;6681;53.254;10.398;2023-10-08T00:03:38;12.30;61.30
13231;DHT22;6681;53.254;10.398;2023-10-08T00:06:04;12.30;62.00
13231;DHT22;6681;53.254;10.398;2023-10-08T00:08:35;12.30;61.80
13231;DHT22;6681;53.254;10.398;2023-10-08T00:11:01;12.40;58.10
13231;DHT22;6681;53.254;10.398;2023-10-08T00:13:33;12.40;57.80
13231;DHT22;6681;53.254;10.398;2023-10-08T00:16:12;12.30;58.30
13231;DHT22;6681;53.254;10.398;2023-10-08T00:18:43;12.30;60.10
13231;DHT22;6681;53.254;10.398;2023-10-08T00:21:18;12.30;59.70
13231;DHT22;6681;53.254;10.398;2023-10-08T00:23:52;12.30;61.30
13231;DHT22;6681;53.254;10.398;2023-10-08T00:26:21;12.30;59.30
13231;DHT22;6681;53.254;10.398;2023-10-08T00:29:06;12.30;57.40
13231;DHT22;6681;53.254;10.398;2023-10-08T00:31:32;12.30;58.30
13231;DHT22;6681;53.254;10.398;2023-10-08T00:34:06;12.30;55.50
13231;DHT22;6681;53.254;10.398;2023-10-08T00:36:34;12.30;59.10
13231;DHT22;6681;53.254;10.398;2023-10-08T00:39:00;12.20;58.00
13231;DHT22;6681;53.254;10.398;2023-10-08T00:41:26;12.40;59.90
13231;DHT22;6681;53.254;10.398;2023-10-08T00:43:59;12.20;60.50
13231;DHT22;6681;53.254;10.398;2023-10-08T00:46:25;12.20;58.10
13231;DHT22;6681;53.254;10.398;2023-10-08T00:48:57;12.20;61.80
13231;DHT22;6681;53.254;10.398;2023-10-08T00:51:25;12.20;58.70
13231;DHT22;6681;53.254;10.398;2023-10-08T00:54:01;12.20;58.00
13231;DHT22;6681;53.254;10.398;2023-10-08T00:56:34;12.20;57.60
13231;DHT22;6681;53.254;10.398;2023-10-08T00:59:15;12.20;60.60
13231;DHT22;6681;53.254;10.398;2023-10-08T01:01:43;12.20;59.80
13231;DHT22;6681;53.254;10.398;2023-10-08T01:04:17;12.20;60.40
13231;DHT22;6681;53.254;10.398;2023-10-08T01:06:44;12.20;58.60
13231;DHT22;6681;53.254;10.398;2023-10-08T01:09:12;12.20;58.90
13231;DHT22;6681;53.254;10.398;2023-10-08T01:11:44;12.20;60.30
13231;DHT22;6681;53.254;10.398;2023-10-08T01:14:16;12.20;60.20
13231;DHT22;6681;53.254;10.398;2023-10-08T01:16:46;12.20;57.50
13231;DHT22;6681;53.254;10.398;2023-10-08T01:19:18;12.20;56.00
13231;DHT22;6681;53.254;10.398;2023-10-08T01:21:45;12.60;57.70
13231;DHT22;6681;53.254;10.398;2023-10-08T01:24:10;12.20;56.00
13231;DHT22;6681;53.254;10.398;2023-10-08T01:26:42;12.20;60.50
13231;DHT22;6681;53.254;10.398;2023-10-08T01:29:11;12.20;59.10
13231;DHT22;6681;53.254;10.398;2023-10-08T01:31:47;12.10;55.50
13231;DHT22;6681;53.254;10.398;2023-10-08T01:34:14;12.10;57.00
13231;DHT22;6681;53.254;10.398;2023-10-08T01:36:42;12.10;56.50
13231;DHT22;6681;53.254;10.398;2023-10-08T01:39:11;12.10;56.20
13231;DHT22;6681;53.254;10.398;2023-10-08T01:41:44;12.10;56.20
13231;DHT22;6681;53.254;10.398;2023-10-08T01:44:09;12.10;55.30
13231;DHT22;6681;53.254;10.398;2023-10-08T01:46:35;12.10;55.80
13231;DHT22;6681;53.254;10.398;2023-10-08T01:49:01;12.00;57.60
13231;DHT22;6681;53.254;10.398;2023-10-08T01:51:34;12.00;58.50
13231;DHT22;6681;53.254;10.398;2023-10-08T01:54:04;12.00;57.60
13231;DHT22;6681;53.254;10.398;2023-10-08T01:56:41;12.10;60.40
13231;DHT22;6681;53.254;10.398;2023-10-08T01:59:11;12.10;57.90
13231;DHT22;6681;53.254;10.398;2023-10-08T02:01:39;12.10;60.90
13231;DHT22;6681;53.254;10.398;2023-10-08T02:04:06;12.10;59.60
13231;DHT22;6681;53.254;10.398;2023-10-08T02:06:33;12.10;60.60
13231;DHT22;6681;53.254;10.398;2023-10-08T02:09:00;12.10;58.90
13231;DHT22;6681;53.254;10.398;2023-10-08T02:11:31;12.10;55.80
13231;DHT22;6681;53.254;10.398;2023-10-08T02:13:57;12.10;56.70
13231;DHT22;6681;53.254;10.398;2023-10-08T02:16:23;12.10;55.80
13231;DHT22;6681;53.254;10.398;2023-10-08T02:18:48;12.10;56.10
13231;DHT22;6681;53.254;10.398;2023-10-08T02:21:16;12.10;56.90
13231;DHT22;6681;53.254;10.398;2023-10-08T02:23:42;12.10;57.20
13231;DHT22;6681;53.254;10.398;2023-10-08T02:26:09;12.00;59.10
13231;DHT22;6681;53.254;10.398;2023-10-08T02:28:36;12.10;57.70
13231;DHT22;6681;53.254;10.398;2023-10-08T02:31:04;12.10;57.10
13231;DHT22;6681;53.254;10.398;2023-10-08T02:33:30;12.00;58.60
13231;DHT22;6681;53.254;10.398;2023-10-08T02:35:56;12.10;57.00
13231;DHT22;6681;53.254;10.398;2023-10-08T02:38:22;12.00;57.70
13231;DHT22;6681;53.254;10.398;2023-10-08T02:40:48;12.00;57.60
13231;DHT22;6681;53.254;10.398;2023-10-08T02:43:14;12.10;57.00
13231;DHT22;6681;53.254;10.398;2023-10-08T02:45:41;12.10;55.20
13231;DHT22;6681;53.254;10.398;2023-10-08T02:48:10;12.10;55.40
13231;DHT22;6681;53.254;10.398;2023-10-08T02:50:47;12.10;54.80
13231;DHT22;6681;53.254;10.398;2023-10-08T02:53:13;12.00;56.00
13231;DHT22;6681;53.254;10.398;2023-10-08T02:55:46;12.10;57.70
13231;DHT22;6681;53.254;10.398;2023-10-08T02:58:15;12.10;56.30
13231;DHT22;6681;53.254;10.398;2023-10-08T03:00:42;12.00;53.90
13231;DHT22;6681;53.254;10.398;2023-10-08T03:03:08;12.10;56.20
13231;DHT22;6681;53.254;10.398;2023-10-08T03:05:45;12.00;55.30
13231;DHT22;6681;53.254;10.398;2023-10-08T03:08:15;12.00;55.60
13231;DHT22;6681;53.254;10.398;2023-10-08T03:10:52;12.00;56.90
13231;DHT22;6681;53.254;10.398;2023-10-08T03:13:24;12.00;54.80
13231;DHT22;6681;53.254;10.398;2023-10-08T03:15:51;11.90;55.50
13231;DHT22;6681;53.254;10.398;2023-10-08T03:18:26;12.00;57.90
13231;DHT22;6681;53.254;10.398;2023-10-08T03:21:02;11.90;56.00
13231;DHT22;6681;53.254;10.398;2023-10-08T03:23:31;11.90;57.60
13231;DHT22;6681;53.254;10.398;2023-10-08T03:26:03;11.80;58.40
13231;DHT22;6681;53.254;10.398;2023-10-08T03:28:37;11.90;59.10
13231;DHT22;6681;53.254;10.398;2023-10-08T03:31:03;11.90;58.60
13231;DHT22;6681;53.254;10.398;2023-10-08T03:33:34;11.90;55.90
13231;DHT22;6681;53.254;10.398;2023-10-08T03:36:02;11.90;55.80
13231;DHT22;6681;53.254;10.398;2023-10-08T03:38:35;11.90;57.10
13231;DHT22;6681;53.254;10.398;2023-10-08T03:41:16;11.90;58.50
13231;DHT22;6681;53.254;10.398;2023-10-08T03:43:45;12.00;56.80
13231;DHT22;6681;53.254;10.398;2023-10-08T03:46:30;11.90;57.30
13231;DHT22;6681;53.254;10.398;2023-10-08T03:48:57;11.90;57.30
13231;DHT22;6681;53.254;10.398;2023-10-08T03:51:23;11.90;55.40
13231;DHT22;6681;53.254;10.398;2023-10-08T03:53:53;11.90;56.70
13231;DHT22;6681;53.254;10.398;2023-10-08T03:56:32;11.90;57.80
13231;DHT22;6681;53.254;10.398;2023-10-08T03:59:04;11.90;54.50
13231;DHT22;6681;53.254;10.398;2023-10-08T04:01:39;11.90;56.60
13231;DHT22;6681;53.254;10.398;2023-10-08T04:04:06;11.90;56.90
13231;DHT22;6681;53.254;10.398;2023-10-08T04:06:37;11.90;55.60
13231;DHT22;6681;53.254;10.398;2023-10-08T04:09:05;11.90;55.30
13231;DHT22;6681;53.254;10.398;2023-10-08T04:11:33;11.90;56.00
13231;DHT22;6681;53.254;10.398;2023-10-08T04:14:15;11.90;52.30
13231;DHT22;6681;53.254;10.398;2023-10-08T04:16:43;11.90;54.60
13231;DHT22;6681;53.254;10.398;2023-10-08T04:19:10;11.90;53.50
13231;DHT22;6681;53.254;10.398;2023-10-08T04:21:36;11.90;52.00
13231;DHT22;6681;53.254;10.398;2023-10-08T04:24:02;11.90;53.60
13231;DHT22;6681;53.254;10.398;2023-10-08T04:26:31;11.90;53.40
13231;DHT22;6681;53.254;10.398;2023-10-08T04:28:58;11.90;54.70
13231;DHT22;6681;53.254;10.398;2023-10-08T04:31:30;11.80;54.80
13231;DHT22;6681;53.254;10.398;2023-10-08T04:34:04;11.80;54.30
13231;DHT22;6681;53.254;10.398;2023-10-08T04:36:46;11.80;54.80
13231;DHT22;6681;53.254;10.398;2023-10-08T04:39:14;11.80;54.60
13231;DHT22;6681;53.254;10.398;2023-10-08T04:41:47;11.80;55.30
13231;DHT22;6681;53.254;10.398;2023-10-08T04:44:19;11.80;54.90
13231;DHT22;6681;53.254;10.398;2023-10-08T04:46:47;11.80;55.50
13231;DHT22;6681;53.254;10.398;2023-10-08T04:49:16;11.80;53.80
13231;DHT22;6681;53.254;10.398;2023-10-08T04:51:57;11.80;55.00
13231;DHT22;6681;53.254;10.398;2023-10-08T04:54:27;11.80;56.70
13231;DHT22;6681;53.254;10.398;2023-10-08T04:56:59;11.80;56.50
13231;DHT22;6681;53.254;10.398;2023-10-08T04:59:30;11.80;57.00
13231;DHT22;6681;53.254;10.398;2023-10-08T05:02:03;11.90;52.70
13231;DHT22;6681;53.254;10.398;2023-10-08T05:04:49;11.80;50.50
13231;DHT22;6681;53.254;10.398;2023-10-08T05:07:21;11.80;51.50
13231;DHT22;6681;53.254;10.398;2023-10-08T05:09:48;11.80;53.60
13231;DHT22;6681;53.254;10.398;2023-10-08T05:12:28;11.80;52.60
13231;DHT22;6681;53.254;10.398;2023-10-08T05:15:00;11.80;53.80
13231;DHT22;6681;53.254;10.398;2023-10-08T05:17:39;11.70;55.80
13231;DHT22;6681;53.254;10.398;2023-10-08T05:20:20;11.70;54.90
13231;DHT22;6681;53.254;10.398;2023-10-08T05:23:11;11.70;53.30
13231;DHT22;6681;53.254;10.398;2023-10-08T05:25:53;11.70;49.50
13231;DHT22;6681;53.254;10.398;2023-10-08T05:28:31;11.70;50.40
13231;DHT22;6681;53.254;10.398;2023-10-08T05:31:10;11.80;49.30
13231;DHT22;6681;53.254;10.398;2023-10-08T05:33:44;11.80;46.70
13231;DHT22;6681;53.254;10.398;2023-10-08T05:36:30;11.90;48.30
13231;DHT22;6681;53.254;10.398;2023-10-08T05:39:19;11.70;51.30
13231;DHT22;6681;53.254;10.398;2023-10-08T05:41:55;11.70;52.30
13231;DHT22;6681;53.254;10.398;2023-10-08T05:44:42;11.70;50.60
13231;DHT22;6681;53.254;10.398;2023-10-08T05:47:13;11.70;51.80
13231;DHT22;6681;53.254;10.398;2023-10-08T05:49:42;11.60;53.50
13231;DHT22;6681;53.254;10.398;2023-10-08T05:52:18;11.60;54.20
13231;DHT22;6681;53.254;10.398;2023-10-08T05:55:07;11.60;55.10
13231;DHT22;6681;53.254;10.398;2023-10-08T05:57:47;11.60;55.20
13231;DHT22;6681;53.254;10.398;2023-10-08T06:00:18;11.60;55.00
13231;DHT22;6681;53.254;10.398;2023-10-08T06:03:03;11.70;52.20
13231;DHT22;6681;53.254;10.398;2023-10-08T06:05:36;11.60;51.60
13231;DHT22;6681;53.254;10.398;2023-10-08T06:08:09;11.60;52.40
13231;DHT22;6681;53.254;10.398;2023-10-08T06:10:40;11.60;53.10
13231;DHT22;6681;53.254;10.398;2023-10-08T06:13:08;11.60;54.50
13231;DHT22;6681;53.254;10.398;2023-10-08T06:15:56;11.50;54.00
13231;DHT22;6681;53.254;10.398;2023-10-08T06:18:29;11.50;54.70
13231;DHT22;6681;53.254;10.398;2023-10-08T06:20:56;11.50;55.00
13231;DHT22;6681;53.254;10.398;2023-10-08T06:23:24;11.50;54.90
13231;DHT22;6681;53.254;10.398;2023-10-08T06:25:52;11.50;54.30
13231;DHT22;6681;53.254;10.398;2023-10-08T06:28:42;11.40;54.70
13231;DHT22;6681;53.254;10.398;2023-10-08T06:31:08;11.60;54.10
13231;DHT22;6681;53.254;10.398;2023-10-08T06:33:38;11.40;53.30
13231;DHT22;6681;53.254;10.398;2023-10-08T06:36:06;11.40;53.60
13231;DHT22;6681;53.254;10.398;2023-10-08T06:38:47;11.50;53.30
13231;DHT22;6681;53.254;10.398;2023-10-08T06:41:17;11.50;50.40
13231;DHT22;6681;53.254;10.398;2023-10-08T06:43:47;11.50;51.10
13231;DHT22;6681;53.254;10.398;2023-10-08T06:46:28;11.50;50.50
13231;DHT22;6681;53.254;10.398;2023-10-08T06:48:54;11.50;50.00
13231;DHT22;6681;53.254;10.398;2023-10-08T06:51:20;11.50;49.90
13231;DHT22;6681;53.254;10.398;2023-10-08T06:53:48;11.50;49.90
13231;DHT22;6681;53.254;10.398;2023-10-08T06:56:17;11.50;50.40
13231;DHT22;6681;53.254;10.398;2023-10-08T06:58:45;11.50;50.10
13231;DHT22;6681;53.254;10.398;2023-10-08T07:01:14;11.50;50.00
13231;DHT22;6681;53.254;10.398;2023-10-08T07:03:49;11.50;50.70
13231;DHT22;6681;53.254;10.398;2023-10-08T07:06:16;11.40;50.30
13231;DHT22;6681;53.254;10.398;2023-10-08T07:08:43;11.40;51.50
13231;DHT22;6681;53.254;10.398;2023-10-08T07:11:12;11.40;54.80
13231;DHT22;6681;53.254;10.398;2023-10-08T07:13:39;11.40;55.40
13231;DHT22;6681;53.254;10.398;2023-10-08T07:16:06;11.40;56.30
13231;DHT22;6681;53.254;10.398;2023-10-08T07:18:37;11.50;56.40
13231;DHT22;6681;53.254;10.398;2023-10-08T07:21:03;11.50;56.00
13231;DHT22;6681;53.254;10.398;2023-10-08T07:23:37;11.50;55.10
13231;DHT22;6681;53.254;10.398;2023-10-08T07:26:15;11.50;56.20
13231;DHT22;6681;53.254;10.398;2023-10-08T07:28:43;11.50;55.00
13231;DHT22;6681;53.254;10.398;2023-10-08T07:31:17;11.40;56.90
13231;DHT22;6681;53.254;10.398;2023-10-08T07:33:56;11.50;58.10
13231;DHT22;6681;53.254;10.398;2023-10-08T07:36:25;11.50;59.50
13231;DHT22;6681;53.254;10.398;2023-10-08T07:38:52;11.50;59.40
13231;DHT22;6681;53.254;10.398;2023-10-08T07:41:18;11.50;59.50
13231;DHT22;6681;53.254;10.398;2023-10-08T07:43:46;11.50;56.10
13231;DHT22;6681;53.254;10.398;2023-10-08T07:46:22;11.60;56.20
13231;DHT22;6681;53.254;10.398;2023-10-08T07:48:47;11.60;57.70
13231;DHT22;6681;53.254;10.398;2023-10-08T07:51:15;11.60;56.70
13231;DHT22;6681;53.254;10.398;2023-10-08T07:53:42;11.70;59.30
13231;DHT22;6681;53.254;10.398;2023-10-08T07:56:08;11.70;60.10
13231;DHT22;6681;53.254;10.398;2023-10-08T07:58:36;11.70;56.80
13231;DHT22;6681;53.254;10.398;2023-10-08T08:01:08;11.70;56.60
13231;DHT22;6681;53.254;10.398;2023-10-08T08:03:35;11.80;55.70
13231;DHT22;6681;53.254;10.398;2023-10-08T08:06:06;11.80;58.20
13231;DHT22;6681;53.254;10.398;2023-10-08T08:08:33;11.80;58.70
13231;DHT22;6681;53.254;10.398;2023-10-08T08:10:59;11.90;57.40
13231;DHT22;6681;53.254;10.398;2023-10-08T08:13:29;11.90;56.50
13231;DHT22;6681;53.254;10.398;2023-10-08T08:15:58;12.00;50.50
13231;DHT22;6681;53.254;10.398;2023-10-08T08:18:26;12.00;48.10
13231;DHT22;6681;53.254;10.398;2023-10-08T08:20:59;12.00;51.30
13231;DHT22;6681;53.254;10.398;2023-10-08T08:23:28;12.10;48.40
13231;DHT22;6681;53.254;10.398;2023-10-08T08:25:54;12.00;50.50
13231;DHT22;6681;53.254;10.398;2023-10-08T08:28:36;12.10;53.40
13231;DHT22;6681;53.254;10.398;2023-10-08T08:31:05;12.00;53.20
13231;DHT22;6681;53.254;10.398;2023-10-08T08:33:42;12.10;52.90
13231;DHT22;6681;53.254;10.398;2023-10-08T08:36:28;12.10;54.60
13231;DHT22;6681;53.254;10.398;2023-10-08T08:38:55;12.10;55.10
13231;DHT22;6681;53.254;10.398;2023-10-08T08:41:21;12.10;43.80
13231;DHT22;6681;53.254;10.398;2023-10-08T08:43:50;12.10;45.10
13231;DHT22;6681;53.254;10.398;2023-10-08T08:46:30;12.20;43.00
13231;DHT22;6681;53.254;10.398;2023-10-08T08:49:06;12.30;46.50
13231;DHT22;6681;53.254;10.398;2023-10-08T08:51:37;12.30;32.10
13231;DHT22;6681;53.254;10.398;2023-10-08T08:54:04;12.40;37.80
13231;DHT22;6681;53.254;10.398;2023-10-08T08:56:38;12.40;47.70
13231;DHT22;6681;53.254;10.398;2023-10-08T08:59:07;12.40;47.80
13231;DHT22;6681;53.254;10.398;2023-10-08T09:01:39;12.40;48.10
13231;DHT22;6681;53.254;10.398;2023-10-08T09:04:05;12.40;28.60
13231;DHT22;6681;53.254;10.398;2023-10-08T09:06:35;14.60;27.00
13231;DHT22;6681;53.254;10.398;2023-10-08T09:09:06;12.60;25.00
13231;DHT22;6681;53.254;10.398;2023-10-08T09:11:52;12.70;24.60
13231;DHT22;6681;53.254;10.398;2023-10-08T09:14:27;12.70;29.30
13231;DHT22;6681;53.254;10.398;2023-10-08T09:17:00;12.80;6.50
13231;DHT22;6681;53.254;10.398;2023-10-08T09:19:26;12.70;20.00
13231;DHT22;6681;53.254;10.398;2023-10-08T09:22:09;12.80;25.80
13231;DHT22;6681;53.254;10.398;2023-10-08T09:24:38;12.80;21.00
13231;DHT22;6681;53.254;10.398;2023-10-08T09:27:05;12.90;6.90
13231;DHT22;6681;53.254;10.398;2023-10-08T09:29:32;13.00;13.70
13231;DHT22;6681;53.254;10.398;2023-10-08T09:32:03;13.00;8.50
13231;DHT22;6681;53.254;10.398;2023-10-08T09:34:32;13.10;8.10
13231;DHT22;6681;53.254;10.398;2023-10-08T09:36:59;13.10;19.90
13231;DHT22;6681;53.254;10.398;2023-10-08T09:39:29;13.10;10.10
13231;DHT22;6681;53.254;10.398;2023-10-08T09:42:02;13.10;18.00
13231;DHT22;6681;53.254;10.398;2023-10-08T09:44:29;13.20;12.20
13231;DHT22;6681;53.254;10.398;2023-10-08T09:47:08;13.20;15.50
13231;DHT22;6681;53.254;10.398;2023-10-08T09:49:45;13.20;11.30
13231;DHT22;6681;53.254;10.398;2023-10-08T09:52:16;13.20;16.70
13231;DHT22;6681;53.254;10.398;2023-10-08T09:55:01;13.20;4.90
13231;DHT22;6681;53.254;10.398;2023-10-08T09:57:30;13.30;1.00
13231;DHT22;6681;53.254;10.398;2023-10-08T09:59:58;13.40;10.60
13231;DHT22;6681;53.254;10.398;2023-10-08T10:02:25;13.40;7.30
13231;DHT22;6681;53.254;10.398;2023-10-08T10:04:54;13.40;8.70
13231;DHT22;6681;53.254;10.398;2023-10-08T10:07:20;13.50;19.90
13231;DHT22;6681;53.254;10.398;2023-10-08T10:09:50;13.50;2.30
13231;DHT22;6681;53.254;10.398;2023-10-08T10:12:29;13.60;2.50
13231;DHT22;6681;53.254;10.398;2023-10-08T10:14:56;13.50;10.60
13231;DHT22;6681;53.254;10.398;2023-10-08T10:17:25;13.60;1.00
13231;DHT22;6681;53.254;10.398;2023-10-08T10:20:01;13.60;1.00
13231;DHT22;6681;53.254;10.398;2023-10-08T10:22:33;13.60;1.00
13231;DHT22;6681;53.254;10.398;2023-10-08T10:25:00;13.50;1.00
13231;DHT22;6681;53.254;10.398;2023-10-08T10:27:29;13.50;1.00
13231;DHT22;6681;53.254;10.398;2023-10-08T10:30:05;13.50;1.00
13231;DHT22;6681;53.254;10.398;2023-10-08T10:32:34;13.50;1.00
13231;DHT22;6681;53.254;10.398;2023-10-08T10:35:00;13.60;1.00
13231;DHT22;6681;53.254;10.398;2023-10-08T10:37:29;13.70;1.00
13231;DHT22;6681;53.254;10.398;2023-10-08T10:40:07;13.70;4.60
13231;DHT22;6681;53.254;10.398;2023-10-08T10:42:38;13.70;1.30
13231;DHT22;6681;53.254;10.398;2023-10-08T10:45:17;13.60;1.00
13231;DHT22;6681;53.254;10.398;2023-10-08T10:48:21;13.70;1.90
13231;DHT22;6681;53.254;10.398;2023-10-08T10:50:50;13.80;1.00
13231;DHT22;6681;53.254;10.398;2023-10-08T10:53:35;13.90;1.00
13231;DHT22;6681;53.254;10.398;2023-10-08T10:56:12;14.00;1.00
13231;DHT22;6681;53.254;10.398;2023-10-08T10:58:46;14.00;1.00
13231;DHT22;6681;53.254;10.398;2023-10-08T11:01:12;14.00;1.00
13231;DHT22;6681;53.254;10.398;2023-10-08T11:03:52;14.00;1.00
13231;DHT22;6681;53.254;10.398;2023-10-08T11:06:22;14.10;1.00
13231;DHT22;6681;53.254;10.398;2023-10-08T11:08:54;14.20;1.00
13231;DHT22;6681;53.254;10.398;2023-10-08T11:11:28;14.20;1.00
13231;DHT22;6681;53.254;10.398;2023-10-08T11:13:59;14.20;1.00
13231;DHT22;6681;53.254;10.398;2023-10-08T11:16:26;14.20;1.00
13231;DHT22;6681;53.254;10.398;2023-10-08T11:18:53;14.30;1.00
13231;DHT22;6681;53.254;10.398;2023-10-08T11:21:23;14.40;1.00
13231;DHT22;6681;53.254;10.398;2023-10-08T11:23:51;14.50;1.00
13231;DHT22;6681;53.254;10.398;2023-10-08T11:26:23;14.50;1.00
13231;DHT22;6681;53.254;10.398;2023-10-08T11:29:01;14.40;1.00
13231;DHT22;6681;53.254;10.398;2023-10-08T11:31:29;14.30;1.00
13231;DHT22;6681;53.254;10.398;2023-10-08T11:34:02;14.20;1.00
13231;DHT22;6681;53.254;10.398;2023-10-08T11:36:36;14.20;1.00
13231;DHT22;6681;53.254;10.398;2023-10-08T11:39:12;14.10;1.00
13231;DHT22;6681;53.254;10.398;2023-10-08T11:41:59;14.10;1.00
13231;DHT22;6681;53.254;10.398;2023-10-08T11:44:30;14.10;1.00
13231;DHT22;6681;53.254;10.398;2023-10-08T11:46:56;14.10;1.00
13231;DHT22;6681;53.254;10.398;2023-10-08T11:49:30;14.10;1.00
13231;DHT22;6681;53.254;10.398;2023-10-08T11:52:01;14.20;1.00
13231;DHT22;6681;53.254;10.398;2023-10-08T11:54:27;14.30;1.00
13231;DHT22;6681;53.254;10.398;2023-10-08T11:56:53;14.50;1.00
13231;DHT22;6681;53.254;10.398;2023-10-08T11:59:20;14.60;1.00
13231;DHT22;6681;53.254;10.398;2023-10-08T12:01:46;14.70;1.00
13231;DHT22;6681;53.254;10.398;2023-10-08T12:04:11;14.80;1.00
13231;DHT22;6681;53.254;10.398;2023-10-08T12:06:42;14.80;1.00
13231;DHT22;6681;53.254;10.398;2023-10-08T12:09:18;14.80;1.00
13231;DHT22;6681;53.254;10.398;2023-10-08T12:11:47;14.80;1.00
13231;DHT22;6681;53.254;10.398;2023-10-08T12:14:13;14.80;1.00
13231;DHT22;6681;53.254;10.398;2023-10-08T12:16:40;14.80;1.00
13231;DHT22;6681;53.254;10.398;2023-10-08T12:19:07;14.80;1.00
13231;DHT22;6681;53.254;10.398;2023-10-08T12:21:43;14.80;1.00
13231;DHT22;6681;53.254;10.398;2023-10-08T12:24:11;14.90;1.00
13231;DHT22;6681;53.254;10.398;2023-10-08T12:26:38;15.00;1.00
13231;DHT22;6681;53.254;10.398;2023-10-08T12:29:14;15.20;1.00
13231;DHT22;6681;53.254;10.398;2023-10-08T12:31:40;15.30;1.00
13231;DHT22;6681;53.254;10.398;2023-10-08T12:34:06;15.50;1.00
13231;DHT22;6681;53.254;10.398;2023-10-08T12:36:32;15.50;1.00
13231;DHT22;6681;53.254;10.398;2023-10-08T12:39:02;15.50;1.00
13231;DHT22;6681;53.254;10.398;2023-10-08T12:41:44;15.50;1.00
13231;DHT22;6681;53.254;10.398;2023-10-08T12:44:10;15.70;1.00
13231;DHT22;6681;53.254;10.398;2023-10-08T12:46:36;15.70;1.00
13231;DHT22;6681;53.254;10.398;2023-10-08T12:49:02;15.80;1.00
13231;DHT22;6681;53.254;10.398;2023-10-08T12:51:29;15.90;1.00
13231;DHT22;6681;53.254;10.398;2023-10-08T12:53:59;15.80;1.00
13231;DHT22;6681;53.254;10.398;2023-10-08T12:56:29;15.70;1.00
13231;DHT22;6681;53.254;10.398;2023-10-08T12:59:01;15.70;1.00
13231;DHT22;6681;53.254;10.398;2023-10-08T13:01:29;15.50;1.00
13231;DHT22;6681;53.254;10.398;2023-10-08T13:03:55;15.30;1.00
13231;DHT22;6681;53.254;10.398;2023-10-08T13:06:33;15.20;1.00
13231;DHT22;6681;53.254;10.398;2023-10-08T13:08:59;15.00;1.00
13231;DHT22;6681;53.254;10.398;2023-10-08T13:11:28;15.00;1.00
13231;DHT22;6681;53.254;10.398;2023-10-08T13:13:59;15.00;1.00
13231;DHT22;6681;53.254;10.398;2023-10-08T13:16:27;15.00;1.00
13231;DHT22;6681;53.254;10.398;2023-10-08T13:19:03;15.00;1.00
13231;DHT22;6681;53.254;10.398;2023-10-08T13:21:29;15.00;1.00
13231;DHT22;6681;53.254;10.398;2023-10-08T13:23:55;15.00;1.00
13231;DHT22;6681;53.254;10.398;2023-10-08T13:26:29;15.00;1.00
13231;DHT22;6681;53.254;10.398;2023-10-08T13:28:59;15.00;1.00
13231;DHT22;6681;53.254;10.398;2023-10-08T13:31:26;14.90;1.00
13231;DHT22;6681;53.254;10.398;2023-10-08T13:33:52;14.90;1.00
13231;DHT22;6681;53.254;10.398;2023-10-08T13:36:21;14.90;1.00
13231;DHT22;6681;53.254;10.398;2023-10-08T13:38:47;14.90;1.00
13231;DHT22;6681;53.254;10.398;2023-10-08T13:41:13;14.90;1.00
13231;DHT22;6681;53.254;10.398;2023-10-08T13:43:44;14.90;1.00
13231;DHT22;6681;53.254;10.398;2023-10-08T13:46:13;14.90;1.00
13231;DHT22;6681;53.254;10.398;2023-10-08T13:48:41;14.90;1.00
13231;DHT22;6681;53.254;10.398;2023-10-08T13:51:08;14.90;1.00
13231;DHT22;6681;53.254;10.398;2023-10-08T13:53:40;14.90;1.00
13231;DHT22;6681;53.254;10.398;2023-10-08T13:56:06;15.00;1.00
13231;DHT22;6681;53.254;10.398;2023-10-08T13:58:32;15.00;1.00
13231;DHT22;6681;53.254;10.398;2023-10-08T14:01:01;15.00;1.00
13231;DHT22;6681;53.254;10.398;2023-10-08T14:03:30;15.10;1.00
13231;DHT22;6681;53.254;10.398;2023-10-08T14:06:00;15.10;1.00
13231;DHT22;6681;53.254;10.398;2023-10-08T14:08:30;15.00;1.00
13231;DHT22;6681;53.254;10.398;2023-10-08T14:10:57;15.00;1.00
13231;DHT22;6681;53.254;10.398;2023-10-08T14:13:29;15.00;1.00
13231;DHT22;6681;53.254;10.398;2023-10-08T14:15:57;14.90;1.00
13231;DHT22;6681;53.254;10.398;2023-10-08T14:18:23;14.90;1.00
13231;DHT22;6681;53.254;10.398;2023-10-08T14:20:52;14.90;1.00
13231;DHT22;6681;53.254;10.398;2023-10-08T14:23:23;14.90;1.00
13231;DHT22;6681;53.254;10.398;2023-10-08T14:25:51;14.90;1.00
13231;DHT22;6681;53.254;10.398;2023-10-08T14:28:20;14.90;1.00
13231;DHT22;6681;53.254;10.398;2023-10-08T14:31:06;14.90;1.00
13231;DHT22;6681;53.254;10.398;2023-10-08T14:33:31;14.90;1.00
13231;DHT22;6681;53.254;10.398;2023-10-08T14:36:07;14.90;1.00
13231;DHT22;6681;53.254;10.398;2023-10-08T14:38:52;14.90;1.00
13231;DHT22;6681;53.254;10.398;2023-10-08T14:41:35;14.80;1.00
13231;DHT22;6681;53.254;10.398;2023-10-08T14:44:23;17.10;1.00
13231;DHT22;6681;53.254;10.398;2023-10-08T14:46:50;14.80;1.00
13231;DHT22;6681;53.254;10.398;2023-10-08T14:49:16;14.80;1.00
13231;DHT22;6681;53.254;10.398;2023-10-08T14:51:42;14.70;1.00
13231;DHT22;6681;53.254;10.398;2023-10-08T14:54:08;14.70;1.00
13231;DHT22;6681;53.254;10.398;2023-10-08T14:56:35;14.70;1.00
13231;DHT22;6681;53.254;10.398;2023-10-08T14:59:03;14.70;1.00
13231;DHT22;6681;53.254;10.398;2023-10-08T15:01:29;14.60;1.00
13231;DHT22;6681;53.254;10.398;2023-10-08T15:03:59;14.60;1.00
13231;DHT22;6681;53.254;10.398;2023-10-08T15:06:25;14.60;1.00
13231;DHT22;6681;53.254;10.398;2023-10-08T15:08:51;14.60;1.00
13231;DHT22;6681;53.254;10.398;2023-10-08T15:11:18;14.60;1.00
13231;DHT22;6681;53.254;10.398;2023-10-08T15:13:43;14.60;1.00
13231;DHT22;6681;53.254;10.398;2023-10-08T15:16:12;14.60;1.00
13231;DHT22;6681;53.254;10.398;2023-10-08T15:18:39;14.60;1.00
13231;DHT22;6681;53.254;10.398;2023-10-08T15:21:08;14.60;1.00
13231;DHT22;6681;53.254;10.398;2023-10-08T15:23:34;14.50;1.00
13231;DHT22;6681;53.254;10.398;2023-10-08T15:26:01;14.50;1.00
13231;DHT22;6681;53.254;10.398;2023-10-08T15:28:27;14.50;1.00
13231;DHT22;6681;53.254;10.398;2023-10-08T15:30:52;14.40;1.00
13231;DHT22;6681;53.254;10.398;2023-10-08T15:33:18;14.40;1.00
13231;DHT22;6681;53.254;10.398;2023-10-08T15:35:43;14.40;1.00
13231;DHT22;6681;53.254;10.398;2023-10-08T15:38:09;14.30;1.00
13231;DHT22;6681;53.254;10.398;2023-10-08T15:40:35;14.30;1.00
13231;DHT22;6681;53.254;10.398;2023-10-08T15:43:01;14.30;1.00
13231;DHT22;6681;53.254;10.398;2023-10-08T15:45:27;14.40;1.00
13231;DHT22;6681;53.254;10.398;2023-10-08T15:47:53;14.40;1.00
13231;DHT22;6681;53.254;10.398;2023-10-08T15:50:20;14.30;1.00
13231;DHT22;6681;53.254;10.398;2023-10-08T15:52:46;14.30;1.00
13231;DHT22;6681;53.254;10.398;2023-10-08T15:55:13;14.20;1.00
13231;DHT22;6681;53.254;10.398;2023-10-08T15:57:39;14.20;1.00
13231;DHT22;6681;53.254;10.398;2023-10-08T16:00:06;14.10;1.00